Data for 07/13/2014

Time Sea-Level Adjusted Pressure Absolute Pressure Temperature Relative Humidity Dew Point   
(mb) (inHg) (mb) (inHg) (C) (F) (%) (C) (F)
00:05 1026 30.3 855 25.25 17.6 63.6 59 9.5 49
00:10 1026 30.3 855 25.25 17.6 63.7 58 9.4 48.9
00:15 1026 30.3 855 25.25 17.5 63.6 56 8.8 47.9
00:20 1026 30.3 855 25.25 17.5 63.6 56 8.8 47.8
00:25 1026 30.3 855 25.25 17.7 63.8 55 8.7 47.7
00:30 1026 30.3 855 25.25 17.9 64.2 55 8.8 47.8
00:35 1026 30.3 855 25.25 17.9 64.3 57 9.5 49.1
00:40 1026 30.3 855 25.25 18 64.3 53 8.4 47.2
00:45 1026 30.3 855 25.25 17.7 63.9 53 8.2 46.7
00:50 1026 30.3 855 25.25 17.6 63.7 53 8 46.3
00:55 1026 30.3 855 25.25 17.7 63.8 53 8.2 46.8
01:00 1026 30.3 855 25.25 17.8 64.1 54 8.6 47.5
01:05 1026 30.3 855 25.25 17.9 64.1 54 8.4 47.2
01:10 1026 30.3 855 25.25 17.9 64.3 55 8.8 47.8
01:15 1026 30.3 855 25.25 17.8 64.1 55 8.6 47.5
01:20 1026 30.3 855 25.25 17.5 63.4 56 8.7 47.7
01:25 1026 30.3 855 25.25 17.4 63.3 55 8.5 47.2
01:30 1026 30.3 855 25.25 17.6 63.6 54 8.4 47.1
01:35 1026 30.3 855 25.25 17.7 63.9 54 8.4 47
01:40 1026 30.3 855 25.25 18 64.3 54 8.5 47.3
01:45 1026 30.3 855 25.25 18 64.5 55 8.8 47.9
01:50 1026 30.3 855 25.25 18 64.4 54 8.7 47.7
01:55 1026 30.3 855 25.25 18 64.3 54 8.7 47.7
02:00 1026 30.3 855 25.25 18 64.3 54 8.7 47.7
02:05 1026 30.3 855 25.25 17.8 64 55 8.8 47.8
02:10 1026 30.3 855 25.25 17.4 63.4 57 8.9 48
02:15 1026 30.3 855 25.25 16.9 62.5 58 8.6 47.5
02:20 1026 30.3 855 25.25 16.6 61.9 59 8.7 47.7
02:25 1026 30.3 855 25.25 16.9 62.5 56 8.1 46.6
02:30 1026 30.3 855 25.25 17.1 62.8 55 8.2 46.7
02:35 1026 30.3 855 25.25 17.3 63.1 54 8 46.4
02:40 1026 30.3 855 25.25 17.5 63.4 54 8.2 46.8
02:45 1026 30.3 855 25.25 17.3 63.1 57 8.7 47.6
02:50 1026 30.3 855 25.25 17 62.6 58 8.7 47.6
02:55 1026 30.3 855 25.25 17.1 62.7 59 9 48.2
03:00 1026 30.3 856 25.28 17 62.5 56 8.2 46.8
03:05 1026 30.3 856 25.28 17 62.6 56 8.3 46.9
03:10 1026 30.3 856 25.28 17 62.6 55 8 46.5
03:15 1026 30.3 856 25.28 16.8 62.3 56 8.1 46.7
03:20 1026 30.3 856 25.28 16.8 62.2 56 8 46.4
03:25 1026 30.3 856 25.28 16.6 61.9 59 8.6 47.6
03:30 1026 30.3 856 25.28 16.7 62 56 8 46.5
03:35 1026 30.3 856 25.28 16.5 61.8 57 8.1 46.5
03:40 1026 30.3 856 25.28 16.8 62.2 55 7.9 46.2
03:45 1026 30.3 856 25.28 16.7 62 58 8.5 47.3
03:50 1027 30.33 856 25.28 16.4 61.6 59 8.5 47.3
03:55 1027 30.33 856 25.28 16.9 62.5 59 8.9 48
04:00 1027 30.33 856 25.28 16.4 61.6 57 8.1 46.5
04:05 1027 30.33 856 25.28 16.3 61.3 57 7.8 46.1
04:10 1027 30.33 856 25.28 16 60.8 60 8.4 47
04:15 1027 30.33 856 25.28 15.5 59.9 62 8.3 46.9
04:20 1027 30.33 856 25.28 15.1 59.2 63 8.1 46.7
04:25 1027 30.33 856 25.28 15 59.1 64 8.4 47.2
04:30 1027 30.33 856 25.28 14.8 58.6 64 8.1 46.6
04:35 1027 30.33 856 25.28 14.9 58.8 63 7.9 46.2
04:40 1027 30.33 856 25.28 15 59.1 61 7.6 45.8
04:45 1027 30.33 856 25.28 15.3 59.5 61 7.9 46.2
04:50 1027 30.33 856 25.28 15.3 59.5 61 7.8 46.1
04:55 1027 30.33 856 25.28 15.2 59.4 60 7.7 45.8
05:00 1027 30.33 856 25.28 15.5 59.8 61 8.1 46.6
05:05 1027 30.33 856 25.28 15.3 59.6 66 9.1 48.3
05:10 1027 30.33 856 25.28 15.3 59.5 62 8.2 46.8
05:15 1027 30.33 856 25.28 15.2 59.4 63 8.2 46.8
05:20 1027 30.33 856 25.28 15.4 59.6 63 8.3 47
05:25 1027 30.33 856 25.28 15.4 59.8 63 8.6 47.5
05:30 1027 30.33 856 25.28 15.3 59.5 64 8.7 47.6
05:35 1027 30.33 856 25.28 15.3 59.5 64 8.6 47.6
05:40 1027 30.33 856 25.28 15.3 59.6 65 9 48.1
05:45 1027 30.33 856 25.28 15.3 59.5 65 8.8 47.9
05:50 1027 30.33 856 25.28 15.4 59.7 65 9 48.2
05:55 1027 30.33 856 25.28 15.4 59.7 65 8.8 47.9
06:00 1027 30.33 856 25.28 15.6 60 64 8.8 47.8
06:05 1027 30.33 856 25.28 15.6 60.1 64 8.8 47.9
06:10 1027 30.33 856 25.28 15.9 60.5 63 8.8 47.9
06:15 1027 30.33 856 25.28 16.3 61.3 66 10.1 50.1
06:20 1027 30.33 856 25.28 16.6 61.9 62 9.3 48.8
06:25 1027 30.33 856 25.28 16.6 61.9 62 9.3 48.8
06:30 1027 30.33 856 25.28 16.8 62.3 62 9.5 49.1
06:35 1027 30.33 856 25.28 17 62.6 62 9.7 49.5
06:40 1027 30.33 856 25.28 17.3 63.1 61 9.7 49.5
06:45 1027 30.33 857 25.31 17.6 63.8 60 10 49.9
06:50 1027 30.33 857 25.31 18.1 64.5 60 10.3 50.5
06:55 1027 30.33 857 25.31 18.3 65 57 9.8 49.6
07:00 1027 30.33 857 25.31 18.8 65.8 55 9.7 49.5
07:05 1027 30.33 857 25.31 19.2 66.5 55 9.9 49.9
07:10 1027 30.33 857 25.31 19.3 66.8 54 10 50
07:15 1027 30.33 857 25.31 19.4 67 52 9.6 49.2
07:20 1027 30.33 857 25.31 19.9 67.7 52 9.9 49.7
07:25 1027 30.33 857 25.31 19.8 67.6 53 10.1 50.1
07:30 1027 30.33 857 25.31 20.2 68.3 53 10.3 50.5
07:35 1027 30.33 857 25.31 20.7 69.2 50 10 50
07:40 1027 30.33 857 25.31 20.9 69.7 49 10 50.1
07:45 1027 30.33 857 25.31 20.7 69.2 49 9.6 49.3
07:50 1027 30.33 857 25.31 20.7 69.2 49 9.8 49.6
07:55 1027 30.33 857 25.31 21.1 70.1 48 9.8 49.6
08:00 1027 30.33 857 25.31 21.8 71.2 44 9.3 48.7
08:05 1027 30.33 857 25.31 22 71.7 44 9.4 48.9
08:10 1027 30.33 857 25.31 22.7 72.8 41 9.1 48.3
08:15 1027 30.33 857 25.31 23.1 73.5 42 9.6 49.3
08:20 1027 30.33 856 25.28 22.7 72.9 41 9 48.3
08:25 1027 30.33 856 25.28 22.6 72.8 40 8.7 47.6
08:30 1027 30.33 856 25.28 22.6 72.7 42 9.2 48.6
08:35 1027 30.33 856 25.28 22.9 73.2 41 9.3 48.7
08:40 1027 30.33 856 25.28 23.1 73.6 42 9.5 49.2
08:45 1027 30.33 856 25.28 23.1 73.7 40 9.2 48.5
08:50 1027 30.33 856 25.28 23.2 73.8 40 9.1 48.3
08:55 1027 30.33 856 25.28 23.5 74.3 40 9.4 48.9
09:00 1027 30.33 856 25.28 23.6 74.5 41 9.8 49.6
09:05 1027 30.33 856 25.28 23.7 74.7 39 9 48.2
09:10 1027 30.33 856 25.28 24.7 76.4 41 10.7 51.2
09:15 1027 30.33 856 25.28 24.3 75.8 39 9.7 49.4
09:20 1027 30.33 856 25.28 24.4 75.8 38 9.3 48.8
09:25 1027 30.33 856 25.28 24.7 76.4 39 9.9 49.8
09:30 1027 30.33 856 25.28 24.8 76.7 37 9.4 49
09:35 1027 30.33 856 25.28 24.8 76.7 39 10.3 50.5
09:40 1027 30.33 856 25.28 24.7 76.5 37 9.4 48.9
09:45 1027 30.33 856 25.28 24.5 76.1 38 9.3 48.8
09:50 1027 30.33 856 25.28 24.7 76.4 37 9.2 48.6
09:55 1027 30.33 856 25.28 25.7 78.2 36 9.6 49.3
10:00 1027 30.33 856 25.28 25.8 78.4 35 9.5 49.1
10:05 1027 30.33 856 25.28 26.8 80.3 33 9.6 49.2
10:10 1027 30.33 856 25.28 26.9 80.3 34 10 50
10:15 1027 30.33 856 25.28 26.8 80.2 34 9.9 49.9
10:20 1027 30.33 856 25.28 27.4 81.3 33 9.8 49.7
10:25 1027 30.33 856 25.28 27.2 80.9 34 10.1 50.1
10:30 1027 30.33 856 25.28 27.5 81.5 32 9.6 49.2
10:35 1027 30.33 856 25.28 27.1 80.7 33 9.7 49.5
10:40 1026 30.3 856 25.28 27.4 81.3 34 10.4 50.8
10:45 1026 30.3 856 25.28 27.5 81.5 33 9.9 49.8
10:50 1026 30.3 856 25.28 28.3 82.9 32 10.2 50.4
10:55 1026 30.3 856 25.28 28.6 83.5 33 10.9 51.6
11:00 1026 30.3 856 25.28 28.2 82.8 32 10.3 50.5
11:05 1026 30.3 855 25.25 27.7 81.9 34 10.5 50.9
11:10 1026 30.3 855 25.25 27.7 81.8 33 10.3 50.5
11:15 1026 30.3 855 25.25 27.2 80.9 33 9.8 49.7
11:20 1026 30.3 855 25.25 28 82.4 31 9.5 49.1
11:25 1026 30.3 855 25.25 28.7 83.7 30 9.5 49.1
11:30 1026 30.3 855 25.25 29 84.2 30 9.8 49.6
11:35 1026 30.3 855 25.25 29 84.2 29 9.7 49.5
11:40 1026 30.3 855 25.25 28.9 84 30 9.9 49.9
11:45 1026 30.3 855 25.25 29.1 84.5 29 9.6 49.2
11:50 1026 30.3 855 25.25 29.4 84.9 30 10.4 50.8
11:55 1026 30.3 855 25.25 29 84.3 29 9.6 49.2
12:00 1026 30.3 855 25.25 29.1 84.3 29 9.3 48.8
12:05 1026 30.3 855 25.25 29.4 84.9 28 9.1 48.4
12:10 1026 30.3 855 25.25 29.6 85.3 28 9.6 49.4
12:15 1026 30.3 855 25.25 29.8 85.6 28 9.4 49
12:20 1026 30.3 855 25.25 29.2 84.6 27 8.6 47.5
12:25 1026 30.3 855 25.25 29.7 85.4 27 8.8 47.9
12:30 1026 30.3 855 25.25 30.3 86.5 26 8.9 47.9
12:35 1026 30.3 855 25.25 30.4 86.8 24 8.1 46.6
12:40 1026 30.3 855 25.25 30 85.9 25 8.3 47
12:45 1026 30.3 855 25.25 30.5 86.9 23 7.2 44.9
12:50 1026 30.3 855 25.25 30.5 86.9 22 6.7 44.1
12:55 1026 30.3 855 25.25 30 86 22 6.2 43.2
13:00 1025 30.27 855 25.25 30.6 87 21 5.9 42.6
13:05 1025 30.27 855 25.25 30.8 87.4 21 6.6 43.9
13:10 1025 30.27 855 25.25 30 86.1 21 5.9 42.6
13:15 1025 30.27 855 25.25 31.1 88.1 20 6.1 43
13:20 1025 30.27 854 25.22 31.4 88.5 20 6 42.8
13:25 1025 30.27 854 25.22 30.9 87.6 21 6.4 43.5
13:30 1025 30.27 854 25.22 30.6 87.1 21 6.3 43.3
13:35 1025 30.27 854 25.22 31.4 88.5 19 5 41
13:40 1025 30.27 854 25.22 32.1 89.8 20 6.5 43.8
13:45 1025 30.27 854 25.22 31.2 88.1 21 6.5 43.8
13:50 1025 30.27 854 25.22 29.6 85.3 21 5.2 41.4
13:55 1025 30.27 854 25.22 29.6 85.3 22 5.9 42.5
14:00 1025 30.27 854 25.22 29.9 85.9 19 4.5 40.1
14:05 1025 30.27 854 25.22 30.3 86.6 21 5.6 42.1
14:10 1025 30.27 854 25.22 29.9 85.8 20 4.8 40.6
14:15 1025 30.27 854 25.22 29.7 85.5 21 5.1 41.2
14:20 1025 30.27 854 25.22 29.9 85.7 20 4.5 40.2
14:25 1025 30.27 854 25.22 30.4 86.6 19 4.8 40.6
14:30 1025 30.27 854 25.22 30.5 86.9 20 5.4 41.7
14:35 1025 30.27 854 25.22 31.2 88.1 17 3.6 38.5
14:40 1025 30.27 854 25.22 31.9 89.4 16 3.6 38.5
14:45 1025 30.27 854 25.22 31 87.8 18 4.5 40.1
14:50 1025 30.27 854 25.22 30.9 87.6 17 3.3 38
14:55 1025 30.27 854 25.22 32 89.5 17 3.9 38.9
15:00 1025 30.27 854 25.22 31.8 89.2 16 3.7 38.6
15:05 1025 30.27 854 25.22 31.8 89.3 17 4.5 40
15:10 1025 30.27 854 25.22 31.6 89 19 5.4 41.7
15:15 1025 30.27 854 25.22 30.9 87.6 17 3.6 38.5
15:20 1025 30.27 854 25.22 31.2 88.1 19 5.4 41.8
15:25 1025 30.27 854 25.22 31.4 88.5 15 2.5 36.5
15:30 1025 30.27 854 25.22 31.8 89.3 15 2 35.7
15:35 1025 30.27 854 25.22 32.5 90.4 15 2.5 36.5
15:40 1025 30.27 854 25.22 32.5 90.6 15 2.9 37.2
15:45 1025 30.27 854 25.22 32 89.6 17 4 39.1
15:50 1025 30.27 854 25.22 31.8 89.2 17 4.1 39.3
15:55 1025 30.27 854 25.22 31.6 88.9 16 2.9 37.2
16:00 1025 30.27 854 25.22 31.2 88.2 15 2.1 35.8
16:05 1024 30.24 854 25.22 30.8 87.5 15 2 35.6
16:10 1024 30.24 854 25.22 30.7 87.3 17 2.9 37.3
16:15 1024 30.24 854 25.22 30.6 87.1 20 5.1 41.2
16:20 1024 30.24 854 25.22 30.6 87.1 19 4.4 39.9
16:25 1024 30.24 854 25.22 30.2 86.4 17 3.1 37.6
16:30 1024 30.24 854 25.22 30.3 86.5 17 3.2 37.7
16:35 1024 30.24 854 25.22 30.2 86.3 18 3.5 38.3
16:40 1024 30.24 854 25.22 29.7 85.4 20 4.7 40.5
16:45 1024 30.24 854 25.22 29.3 84.8 21 5 40.9
16:50 1024 30.24 854 25.22 29.7 85.4 21 5.6 42.1
16:55 1024 30.24 854 25.22 29.8 85.6 21 5.6 42.1
17:00 1024 30.24 854 25.22 29.5 85.2 20 4.9 40.7
17:05 1024 30.24 854 25.22 29.6 85.3 22 5.8 42.4
17:10 1024 30.24 854 25.22 29.4 85 21 5.3 41.5
17:15 1024 30.24 854 25.22 29.3 84.8 22 5.7 42.3
17:20 1024 30.24 854 25.22 29.2 84.6 22 5.8 42.5
17:25 1024 30.24 854 25.22 29.3 84.7 22 5.9 42.6
17:30 1024 30.24 853 25.19 29.2 84.5 21 5.1 41.1
17:35 1024 30.24 853 25.19 29 84.1 24 6.7 44.1
17:40 1024 30.24 853 25.19 28.4 83.1 24 6.5 43.6
17:45 1024 30.24 853 25.19 28.5 83.4 25 6.7 44
17:50 1024 30.24 853 25.19 29 84.1 23 6.1 43
17:55 1024 30.24 853 25.19 29.3 84.7 22 5.5 41.9
18:00 1024 30.24 853 25.19 29.7 85.4 22 6.1 42.9
18:05 1024 30.24 853 25.19 29.9 85.8 19 4 39.3
18:10 1024 30.24 853 25.19 29.5 85.2 20 4.4 39.9
18:15 1024 30.24 853 25.19 29.4 84.9 21 5.1 41.2
18:20 1024 30.24 854 25.22 29.2 84.5 28 8.9 47.9
18:25 1024 30.24 854 25.22 28.2 82.8 30 9.5 49.1
18:30 1024 30.24 853 25.19 27.7 81.9 32 9.7 49.5
18:35 1024 30.24 853 25.19 27.6 81.8 32 9.7 49.5
18:40 1024 30.24 853 25.19 27.6 81.7 32 9.6 49.2
18:45 1024 30.24 853 25.19 27.3 81.1 37 11.4 52.6
18:50 1024 30.24 853 25.19 27 80.6 36 11 51.9
18:55 1024 30.24 853 25.19 26.7 80 37 11.1 51.9
19:00 1024 30.24 853 25.19 26.6 79.8 35 10.2 50.3
19:05 1024 30.24 853 25.19 26.6 79.8 37 11 51.8
19:10 1024 30.24 853 25.19 26.6 79.8 39 11.9 53.4
19:15 1024 30.24 853 25.19 26.6 79.9 40 12 53.6
19:20 1024 30.24 853 25.19 26.5 79.7 39 11.7 53.1
19:25 1024 30.24 854 25.22 26.1 78.9 41 12.1 53.9
19:30 1024 30.24 854 25.22 25.7 78.2 36 9.7 49.4
19:35 1025 30.27 854 25.22 25.5 77.9 33 8.4 47.1
19:40 1025 30.27 854 25.22 25.4 77.7 33 8 46.5
19:45 1025 30.27 854 25.22 25.3 77.5 32 7.4 45.4
19:50 1025 30.27 854 25.22 25.2 77.3 32 7.4 45.4
19:55 1025 30.27 854 25.22 24.9 76.9 32 7.4 45.3
20:00 1025 30.27 854 25.22 24.7 76.4 32 6.9 44.5
20:05 1025 30.27 854 25.22 24.7 76.5 30 6.4 43.6
20:10 1025 30.27 854 25.22 24.8 76.6 30 6.4 43.5
20:15 1025 30.27 854 25.22 24.6 76.3 31 6.5 43.7
20:20 1025 30.27 854 25.22 24.5 76.1 31 6.5 43.7
20:25 1025 30.27 854 25.22 24.3 75.7 31 6.2 43.2
20:30 1025 30.27 854 25.22 24.1 75.4 31 6.3 43.3
20:35 1025 30.27 854 25.22 23.9 75.1 31 6.2 43.1
20:40 1025 30.27 854 25.22 23.8 74.9 31 6.1 43
20:45 1025 30.27 854 25.22 23.7 74.7 32 6 42.9
20:50 1025 30.27 854 25.22 23.6 74.4 32 6.1 43
20:55 1025 30.27 854 25.22 23.7 74.6 31 5.6 42
21:00 1025 30.27 854 25.22 23.9 75 30 5.7 42.2
21:05 1025 30.27 855 25.25 23.8 74.9 31 5.8 42.4
21:10 1025 30.27 855 25.25 23.6 74.4 31 5.7 42.3
21:15 1025 30.27 855 25.25 23.4 74.2 31 5.7 42.3
21:20 1025 30.27 855 25.25 23.3 73.9 32 5.7 42.2
21:25 1026 30.3 855 25.25 23.2 73.7 31 5.5 41.8
21:30 1026 30.3 855 25.25 23.2 73.7 31 5.1 41.3
21:35 1026 30.3 855 25.25 23.2 73.8 32 5.6 42.1
21:40 1026 30.3 855 25.25 23.2 73.8 30 4.9 40.9
21:45 1026 30.3 855 25.25 23.2 73.8 30 5.1 41.1
21:50 1026 30.3 855 25.25 23.1 73.6 31 5.1 41.2
21:55 1026 30.3 855 25.25 23.1 73.6 31 5.1 41.1
22:00 1026 30.3 855 25.25 23.1 73.5 31 5.1 41.1
22:05 1026 30.3 855 25.25 23 73.5 31 5.2 41.3
22:10 1026 30.3 855 25.25 23 73.4 31 5 41.1
22:15 1026 30.3 855 25.25 23 73.4 31 5.3 41.5
22:20 1026 30.3 855 25.25 22.9 73.2 32 5.4 41.6
22:25 1026 30.3 855 25.25 22.8 73 32 5.3 41.5
22:30 1026 30.3 855 25.25 22.7 72.9 32 5.3 41.6
22:35 1026 30.3 855 25.25 22.7 72.8 32 5.1 41.3
22:40 1026 30.3 855 25.25 22.6 72.7 32 5.2 41.3
22:45 1026 30.3 855 25.25 22.5 72.6 32 5.3 41.6
22:50 1026 30.3 855 25.25 22.5 72.4 32 5.4 41.7
22:55 1026 30.3 855 25.25 22.3 72.1 33 5.4 41.6
23:00 1026 30.3 855 25.25 22.2 71.9 33 5.4 41.8
23:05 1026 30.3 855 25.25 22 71.6 34 5.5 41.9
23:10 1026 30.3 855 25.25 21.9 71.4 34 5.4 41.7
23:15 1026 30.3 855 25.25 21.8 71.3 34 5.4 41.7
23:20 1026 30.3 855 25.25 21.8 71.2 34 5.3 41.5
23:25 1026 30.3 855 25.25 21.7 71 34 5.2 41.4
23:30 1026 30.3 855 25.25 21.7 71 34 5.3 41.5
23:35 1026 30.3 855 25.25 21.5 70.8 34 5.4 41.7
23:40 1026 30.3 855 25.25 21.5 70.7 34 5 41
23:45 1026 30.3 855 25.25 21.6 70.8 34 5.1 41.1
23:50 1026 30.3 855 25.25 21.5 70.7 34 5.1 41.1
23:55 1026 30.3 855 25.25 21.3 70.3 35 5.4 41.6
24:00 1026 30.3 855 25.25 21 69.8 36 5.6 42